sensor_id;sensor_type;location;lat;lon;timestamp;P1;durP1;ratioP1;P2;durP2;ratioP2
45944;SDS011;31655;48.972;10.686;2022-11-20T00:01:11;17.42;;;8.77;;
45944;SDS011;31655;48.972;10.686;2022-11-20T00:03:39;15.57;;;8.13;;
45944;SDS011;31655;48.972;10.686;2022-11-20T00:06:09;15.88;;;9.05;;
45944;SDS011;31655;48.972;10.686;2022-11-20T00:08:36;17.48;;;10.32;;
45944;SDS011;31655;48.972;10.686;2022-11-20T00:11:06;18.05;;;8.90;;
45944;SDS011;31655;48.972;10.686;2022-11-20T00:13:33;15.88;;;7.38;;
45944;SDS011;31655;48.972;10.686;2022-11-20T00:16:00;14.15;;;7.80;;
45944;SDS011;31655;48.972;10.686;2022-11-20T00:18:28;16.50;;;8.07;;
45944;SDS011;31655;48.972;10.686;2022-11-20T00:21:04;14.63;;;7.28;;
45944;SDS011;31655;48.972;10.686;2022-11-20T00:23:32;14.20;;;7.85;;
45944;SDS011;31655;48.972;10.686;2022-11-20T00:26:17;14.60;;;7.45;;
45944;SDS011;31655;48.972;10.686;2022-11-20T00:28:44;13.27;;;7.05;;
45944;SDS011;31655;48.972;10.686;2022-11-20T00:31:18;14.33;;;8.73;;
45944;SDS011;31655;48.972;10.686;2022-11-20T00:33:48;12.90;;;7.35;;
45944;SDS011;31655;48.972;10.686;2022-11-20T00:36:17;19.05;;;8.95;;
45944;SDS011;31655;48.972;10.686;2022-11-20T00:38:44;13.85;;;7.38;;
45944;SDS011;31655;48.972;10.686;2022-11-20T00:41:12;14.73;;;7.97;;
45944;SDS011;31655;48.972;10.686;2022-11-20T00:43:39;13.90;;;6.68;;
45944;SDS011;31655;48.972;10.686;2022-11-20T00:46:06;11.95;;;6.40;;
45944;SDS011;31655;48.972;10.686;2022-11-20T00:48:34;10.02;;;6.20;;
45944;SDS011;31655;48.972;10.686;2022-11-20T00:51:00;11.80;;;6.00;;
45944;SDS011;31655;48.972;10.686;2022-11-20T00:53:26;11.32;;;5.65;;
45944;SDS011;31655;48.972;10.686;2022-11-20T00:55:56;11.50;;;6.68;;
45944;SDS011;31655;48.972;10.686;2022-11-20T00:58:28;13.00;;;7.07;;
45944;SDS011;31655;48.972;10.686;2022-11-20T01:03:31;15.05;;;6.90;;
45944;SDS011;31655;48.972;10.686;2022-11-20T01:06:04;9.50;;;5.88;;
45944;SDS011;31655;48.972;10.686;2022-11-20T01:08:32;10.50;;;6.70;;
45944;SDS011;31655;48.972;10.686;2022-11-20T01:11:06;11.07;;;6.40;;
45944;SDS011;31655;48.972;10.686;2022-11-20T01:13:35;11.65;;;6.88;;
45944;SDS011;31655;48.972;10.686;2022-11-20T01:18:46;13.45;;;7.00;;
45944;SDS011;31655;48.972;10.686;2022-11-20T01:21:14;13.48;;;6.97;;
45944;SDS011;31655;48.972;10.686;2022-11-20T01:23:42;12.32;;;6.35;;
45944;SDS011;31655;48.972;10.686;2022-11-20T01:26:09;12.80;;;7.72;;
45944;SDS011;31655;48.972;10.686;2022-11-20T01:28:37;15.48;;;6.72;;
45944;SDS011;31655;48.972;10.686;2022-11-20T01:31:15;14.52;;;7.45;;
45944;SDS011;31655;48.972;10.686;2022-11-20T01:33:43;14.82;;;7.35;;
45944;SDS011;31655;48.972;10.686;2022-11-20T01:36:10;13.85;;;8.32;;
45944;SDS011;31655;48.972;10.686;2022-11-20T01:38:37;16.55;;;8.68;;
45944;SDS011;31655;48.972;10.686;2022-11-20T01:41:03;16.45;;;8.95;;
45944;SDS011;31655;48.972;10.686;2022-11-20T01:43:29;16.33;;;9.15;;
45944;SDS011;31655;48.972;10.686;2022-11-20T01:48:51;14.55;;;7.93;;
45944;SDS011;31655;48.972;10.686;2022-11-20T01:51:29;17.77;;;8.75;;
45944;SDS011;31655;48.972;10.686;2022-11-20T01:54:36;18.85;;;9.90;;
45944;SDS011;31655;48.972;10.686;2022-11-20T01:57:09;19.50;;;9.82;;
45944;SDS011;31655;48.972;10.686;2022-11-20T01:59:37;20.05;;;10.23;;
45944;SDS011;31655;48.972;10.686;2022-11-20T02:02:18;19.30;;;10.13;;
45944;SDS011;31655;48.972;10.686;2022-11-20T02:04:46;21.08;;;10.95;;
45944;SDS011;31655;48.972;10.686;2022-11-20T02:07:14;19.63;;;10.80;;
45944;SDS011;31655;48.972;10.686;2022-11-20T02:09:40;17.70;;;10.27;;
45944;SDS011;31655;48.972;10.686;2022-11-20T02:12:05;17.48;;;10.20;;
45944;SDS011;31655;48.972;10.686;2022-11-20T02:14:51;21.13;;;11.00;;
45944;SDS011;31655;48.972;10.686;2022-11-20T02:17:17;21.75;;;10.70;;
45944;SDS011;31655;48.972;10.686;2022-11-20T02:19:43;23.75;;;11.30;;
45944;SDS011;31655;48.972;10.686;2022-11-20T02:22:10;24.05;;;11.25;;
45944;SDS011;31655;48.972;10.686;2022-11-20T02:24:47;20.98;;;11.63;;
45944;SDS011;31655;48.972;10.686;2022-11-20T02:27:15;21.45;;;11.68;;
45944;SDS011;31655;48.972;10.686;2022-11-20T02:29:49;20.25;;;11.00;;
45944;SDS011;31655;48.972;10.686;2022-11-20T02:32:18;21.20;;;12.43;;
45944;SDS011;31655;48.972;10.686;2022-11-20T02:34:55;19.77;;;11.02;;
45944;SDS011;31655;48.972;10.686;2022-11-20T02:37:21;20.90;;;11.35;;
45944;SDS011;31655;48.972;10.686;2022-11-20T02:39:48;18.77;;;10.57;;
45944;SDS011;31655;48.972;10.686;2022-11-20T02:42:17;21.10;;;10.98;;
45944;SDS011;31655;48.972;10.686;2022-11-20T02:44:43;22.35;;;11.85;;
45944;SDS011;31655;48.972;10.686;2022-11-20T02:47:08;23.30;;;11.48;;
45944;SDS011;31655;48.972;10.686;2022-11-20T02:49:34;19.42;;;10.98;;
45944;SDS011;31655;48.972;10.686;2022-11-20T02:52:01;21.60;;;11.57;;
45944;SDS011;31655;48.972;10.686;2022-11-20T02:54:26;17.75;;;9.93;;
45944;SDS011;31655;48.972;10.686;2022-11-20T02:56:52;21.23;;;11.27;;
45944;SDS011;31655;48.972;10.686;2022-11-20T02:59:18;25.50;;;12.68;;
45944;SDS011;31655;48.972;10.686;2022-11-20T03:01:44;25.02;;;12.60;;
45944;SDS011;31655;48.972;10.686;2022-11-20T03:04:09;25.52;;;13.52;;
45944;SDS011;31655;48.972;10.686;2022-11-20T03:06:35;25.48;;;13.35;;
45944;SDS011;31655;48.972;10.686;2022-11-20T03:09:01;25.35;;;12.90;;
45944;SDS011;31655;48.972;10.686;2022-11-20T03:11:28;25.95;;;13.25;;
45944;SDS011;31655;48.972;10.686;2022-11-20T03:13:54;21.80;;;12.80;;
45944;SDS011;31655;48.972;10.686;2022-11-20T03:16:21;25.80;;;12.88;;
45944;SDS011;31655;48.972;10.686;2022-11-20T03:18:47;23.48;;;13.00;;
45944;SDS011;31655;48.972;10.686;2022-11-20T03:21:14;25.33;;;13.27;;
45944;SDS011;31655;48.972;10.686;2022-11-20T03:23:40;28.27;;;13.55;;
45944;SDS011;31655;48.972;10.686;2022-11-20T03:26:16;29.65;;;14.73;;
45944;SDS011;31655;48.972;10.686;2022-11-20T03:28:48;24.80;;;13.65;;
45944;SDS011;31655;48.972;10.686;2022-11-20T03:31:15;29.45;;;14.60;;
45944;SDS011;31655;48.972;10.686;2022-11-20T03:33:42;23.88;;;13.48;;
45944;SDS011;31655;48.972;10.686;2022-11-20T03:36:09;30.08;;;14.55;;
45944;SDS011;31655;48.972;10.686;2022-11-20T03:38:37;33.45;;;14.40;;
45944;SDS011;31655;48.972;10.686;2022-11-20T03:41:04;30.50;;;16.15;;
45944;SDS011;31655;48.972;10.686;2022-11-20T03:43:31;31.65;;;13.95;;
45944;SDS011;31655;48.972;10.686;2022-11-20T03:45:58;30.55;;;14.30;;
45944;SDS011;31655;48.972;10.686;2022-11-20T03:48:24;35.45;;;16.40;;
45944;SDS011;31655;48.972;10.686;2022-11-20T03:50:51;27.15;;;13.75;;
45944;SDS011;31655;48.972;10.686;2022-11-20T03:53:17;25.90;;;13.38;;
45944;SDS011;31655;48.972;10.686;2022-11-20T03:55:43;26.50;;;14.05;;
45944;SDS011;31655;48.972;10.686;2022-11-20T03:58:09;28.23;;;15.45;;
45944;SDS011;31655;48.972;10.686;2022-11-20T04:00:35;28.85;;;15.25;;
45944;SDS011;31655;48.972;10.686;2022-11-20T04:03:01;27.15;;;14.35;;
45944;SDS011;31655;48.972;10.686;2022-11-20T04:05:27;28.20;;;13.52;;
45944;SDS011;31655;48.972;10.686;2022-11-20T04:07:53;23.52;;;13.00;;
45944;SDS011;31655;48.972;10.686;2022-11-20T04:10:19;27.98;;;13.00;;
45944;SDS011;31655;48.972;10.686;2022-11-20T04:12:45;21.75;;;13.05;;
45944;SDS011;31655;48.972;10.686;2022-11-20T04:15:10;23.30;;;11.40;;
45944;SDS011;31655;48.972;10.686;2022-11-20T04:17:36;20.55;;;12.00;;
45944;SDS011;31655;48.972;10.686;2022-11-20T04:20:05;22.05;;;11.95;;
45944;SDS011;31655;48.972;10.686;2022-11-20T04:22:31;23.88;;;11.82;;
45944;SDS011;31655;48.972;10.686;2022-11-20T04:24:57;22.70;;;12.00;;
45944;SDS011;31655;48.972;10.686;2022-11-20T04:27:23;21.77;;;11.57;;
45944;SDS011;31655;48.972;10.686;2022-11-20T04:29:49;35.83;;;17.70;;
45944;SDS011;31655;48.972;10.686;2022-11-20T04:32:14;21.13;;;12.07;;
45944;SDS011;31655;48.972;10.686;2022-11-20T04:34:40;17.60;;;11.10;;
45944;SDS011;31655;48.972;10.686;2022-11-20T04:37:06;19.40;;;10.27;;
45944;SDS011;31655;48.972;10.686;2022-11-20T04:39:32;19.25;;;10.98;;
45944;SDS011;31655;48.972;10.686;2022-11-20T04:41:59;22.20;;;11.02;;
45944;SDS011;31655;48.972;10.686;2022-11-20T04:44:43;18.50;;;9.55;;
45944;SDS011;31655;48.972;10.686;2022-11-20T04:47:09;16.25;;;9.98;;
45944;SDS011;31655;48.972;10.686;2022-11-20T04:49:34;40.83;;;17.20;;
45944;SDS011;31655;48.972;10.686;2022-11-20T04:52:00;13.82;;;8.63;;
45944;SDS011;31655;48.972;10.686;2022-11-20T04:54:26;13.32;;;7.82;;
45944;SDS011;31655;48.972;10.686;2022-11-20T04:56:52;15.77;;;7.93;;
45944;SDS011;31655;48.972;10.686;2022-11-20T04:59:17;18.00;;;9.10;;
45944;SDS011;31655;48.972;10.686;2022-11-20T05:01:43;13.27;;;8.35;;
45944;SDS011;31655;48.972;10.686;2022-11-20T05:04:08;12.27;;;7.32;;
45944;SDS011;31655;48.972;10.686;2022-11-20T05:06:34;13.10;;;8.82;;
45944;SDS011;31655;48.972;10.686;2022-11-20T05:09:00;14.23;;;8.43;;
45944;SDS011;31655;48.972;10.686;2022-11-20T05:11:27;13.63;;;7.90;;
45944;SDS011;31655;48.972;10.686;2022-11-20T05:13:54;11.23;;;8.73;;
45944;SDS011;31655;48.972;10.686;2022-11-20T05:16:22;14.32;;;7.50;;
45944;SDS011;31655;48.972;10.686;2022-11-20T05:18:49;16.15;;;9.50;;
45944;SDS011;31655;48.972;10.686;2022-11-20T05:21:16;17.40;;;8.30;;
45944;SDS011;31655;48.972;10.686;2022-11-20T05:23:42;13.23;;;8.13;;
45944;SDS011;31655;48.972;10.686;2022-11-20T05:26:14;12.90;;;8.02;;
45944;SDS011;31655;48.972;10.686;2022-11-20T05:28:41;14.65;;;8.32;;
45944;SDS011;31655;48.972;10.686;2022-11-20T05:31:08;15.52;;;8.05;;
45944;SDS011;31655;48.972;10.686;2022-11-20T05:33:35;17.05;;;7.05;;
45944;SDS011;31655;48.972;10.686;2022-11-20T05:36:02;14.13;;;7.28;;
45944;SDS011;31655;48.972;10.686;2022-11-20T05:38:29;15.23;;;8.05;;
45944;SDS011;31655;48.972;10.686;2022-11-20T05:40:55;12.45;;;7.70;;
45944;SDS011;31655;48.972;10.686;2022-11-20T05:43:31;11.80;;;7.80;;
45944;SDS011;31655;48.972;10.686;2022-11-20T05:45:58;13.55;;;7.82;;
45944;SDS011;31655;48.972;10.686;2022-11-20T05:48:23;13.13;;;7.13;;
45944;SDS011;31655;48.972;10.686;2022-11-20T05:50:49;14.60;;;8.00;;
45944;SDS011;31655;48.972;10.686;2022-11-20T05:53:15;13.48;;;8.05;;
45944;SDS011;31655;48.972;10.686;2022-11-20T05:55:41;15.20;;;8.07;;
45944;SDS011;31655;48.972;10.686;2022-11-20T05:58:06;12.57;;;8.13;;
45944;SDS011;31655;48.972;10.686;2022-11-20T06:00:33;13.30;;;7.80;;
45944;SDS011;31655;48.972;10.686;2022-11-20T06:03:03;15.65;;;8.18;;
45944;SDS011;31655;48.972;10.686;2022-11-20T06:05:29;13.10;;;8.18;;
45944;SDS011;31655;48.972;10.686;2022-11-20T06:07:56;14.32;;;8.70;;
45944;SDS011;31655;48.972;10.686;2022-11-20T06:10:22;18.13;;;8.52;;
45944;SDS011;31655;48.972;10.686;2022-11-20T06:12:48;15.80;;;8.77;;
45944;SDS011;31655;48.972;10.686;2022-11-20T06:15:13;18.17;;;8.10;;
45944;SDS011;31655;48.972;10.686;2022-11-20T06:17:39;13.98;;;7.63;;
45944;SDS011;31655;48.972;10.686;2022-11-20T06:20:05;18.35;;;9.48;;
45944;SDS011;31655;48.972;10.686;2022-11-20T06:22:31;13.90;;;8.05;;
45944;SDS011;31655;48.972;10.686;2022-11-20T06:24:57;12.80;;;8.18;;
45944;SDS011;31655;48.972;10.686;2022-11-20T06:27:23;14.93;;;9.00;;
45944;SDS011;31655;48.972;10.686;2022-11-20T06:29:48;16.27;;;9.82;;
45944;SDS011;31655;48.972;10.686;2022-11-20T06:32:14;16.05;;;8.50;;
45944;SDS011;31655;48.972;10.686;2022-11-20T06:34:40;13.63;;;8.73;;
45944;SDS011;31655;48.972;10.686;2022-11-20T06:37:05;16.75;;;8.35;;
45944;SDS011;31655;48.972;10.686;2022-11-20T06:39:31;15.45;;;9.10;;
45944;SDS011;31655;48.972;10.686;2022-11-20T06:41:57;14.13;;;8.20;;
45944;SDS011;31655;48.972;10.686;2022-11-20T06:44:23;13.80;;;8.38;;
45944;SDS011;31655;48.972;10.686;2022-11-20T06:46:48;12.52;;;8.05;;
45944;SDS011;31655;48.972;10.686;2022-11-20T06:49:14;17.42;;;8.52;;
45944;SDS011;31655;48.972;10.686;2022-11-20T06:51:40;12.93;;;7.90;;
45944;SDS011;31655;48.972;10.686;2022-11-20T06:54:06;11.93;;;7.78;;
45944;SDS011;31655;48.972;10.686;2022-11-20T06:56:31;13.88;;;7.97;;
45944;SDS011;31655;48.972;10.686;2022-11-20T06:58:57;13.73;;;7.05;;
45944;SDS011;31655;48.972;10.686;2022-11-20T07:01:22;9.82;;;6.88;;
45944;SDS011;31655;48.972;10.686;2022-11-20T07:03:49;10.50;;;6.45;;
45944;SDS011;31655;48.972;10.686;2022-11-20T07:06:16;13.93;;;7.32;;
45944;SDS011;31655;48.972;10.686;2022-11-20T07:08:42;13.23;;;7.13;;
45944;SDS011;31655;48.972;10.686;2022-11-20T07:11:10;12.20;;;7.25;;
45944;SDS011;31655;48.972;10.686;2022-11-20T07:13:37;10.00;;;6.22;;
45944;SDS011;31655;48.972;10.686;2022-11-20T07:16:03;12.38;;;6.45;;
45944;SDS011;31655;48.972;10.686;2022-11-20T07:18:30;10.48;;;5.75;;
45944;SDS011;31655;48.972;10.686;2022-11-20T07:20:59;9.77;;;6.20;;
45944;SDS011;31655;48.972;10.686;2022-11-20T07:23:26;10.93;;;6.68;;
45944;SDS011;31655;48.972;10.686;2022-11-20T07:25:52;10.88;;;6.30;;
45944;SDS011;31655;48.972;10.686;2022-11-20T07:28:18;11.10;;;6.90;;
45944;SDS011;31655;48.972;10.686;2022-11-20T07:30:49;10.30;;;5.93;;
45944;SDS011;31655;48.972;10.686;2022-11-20T07:33:15;10.10;;;6.13;;
45944;SDS011;31655;48.972;10.686;2022-11-20T07:35:41;11.52;;;6.60;;
45944;SDS011;31655;48.972;10.686;2022-11-20T07:38:06;8.18;;;5.22;;
45944;SDS011;31655;48.972;10.686;2022-11-20T07:40:33;10.45;;;6.03;;
45944;SDS011;31655;48.972;10.686;2022-11-20T07:42:58;11.95;;;6.43;;
45944;SDS011;31655;48.972;10.686;2022-11-20T07:45:24;12.55;;;6.93;;
45944;SDS011;31655;48.972;10.686;2022-11-20T07:47:50;8.98;;;5.53;;
45944;SDS011;31655;48.972;10.686;2022-11-20T07:50:16;11.32;;;6.68;;
45944;SDS011;31655;48.972;10.686;2022-11-20T07:52:42;11.68;;;5.88;;
45944;SDS011;31655;48.972;10.686;2022-11-20T07:55:08;8.80;;;4.90;;
45944;SDS011;31655;48.972;10.686;2022-11-20T07:57:35;8.95;;;4.90;;
45944;SDS011;31655;48.972;10.686;2022-11-20T08:00:01;10.65;;;5.45;;
45944;SDS011;31655;48.972;10.686;2022-11-20T08:02:40;9.57;;;5.30;;
45944;SDS011;31655;48.972;10.686;2022-11-20T08:05:06;8.73;;;5.07;;
45944;SDS011;31655;48.972;10.686;2022-11-20T08:07:41;9.82;;;5.40;;
45944;SDS011;31655;48.972;10.686;2022-11-20T08:10:08;9.68;;;5.32;;
45944;SDS011;31655;48.972;10.686;2022-11-20T08:12:35;8.63;;;5.40;;
45944;SDS011;31655;48.972;10.686;2022-11-20T08:15:19;9.55;;;6.13;;
45944;SDS011;31655;48.972;10.686;2022-11-20T08:17:45;13.45;;;6.00;;
45944;SDS011;31655;48.972;10.686;2022-11-20T08:20:14;10.02;;;5.30;;
45944;SDS011;31655;48.972;10.686;2022-11-20T08:22:42;12.30;;;6.32;;
45944;SDS011;31655;48.972;10.686;2022-11-20T08:25:08;11.10;;;6.88;;
45944;SDS011;31655;48.972;10.686;2022-11-20T08:27:33;9.25;;;6.22;;
45944;SDS011;31655;48.972;10.686;2022-11-20T08:29:59;10.18;;;6.20;;
45944;SDS011;31655;48.972;10.686;2022-11-20T08:32:25;9.10;;;6.22;;
45944;SDS011;31655;48.972;10.686;2022-11-20T08:34:50;10.55;;;5.75;;
45944;SDS011;31655;48.972;10.686;2022-11-20T08:37:17;9.80;;;6.43;;
45944;SDS011;31655;48.972;10.686;2022-11-20T08:39:43;11.45;;;6.65;;
45944;SDS011;31655;48.972;10.686;2022-11-20T08:42:09;11.80;;;6.47;;
45944;SDS011;31655;48.972;10.686;2022-11-20T08:44:34;11.07;;;7.05;;
45944;SDS011;31655;48.972;10.686;2022-11-20T08:47:00;9.07;;;5.90;;
45944;SDS011;31655;48.972;10.686;2022-11-20T08:49:26;13.50;;;6.93;;
45944;SDS011;31655;48.972;10.686;2022-11-20T08:51:51;10.90;;;6.05;;
45944;SDS011;31655;48.972;10.686;2022-11-20T08:54:18;11.15;;;6.75;;
45944;SDS011;31655;48.972;10.686;2022-11-20T08:56:47;15.55;;;6.97;;
45944;SDS011;31655;48.972;10.686;2022-11-20T08:59:13;13.30;;;7.47;;
45944;SDS011;31655;48.972;10.686;2022-11-20T09:01:38;12.15;;;6.55;;
45944;SDS011;31655;48.972;10.686;2022-11-20T09:04:04;10.57;;;6.32;;
45944;SDS011;31655;48.972;10.686;2022-11-20T09:06:30;19.15;;;8.80;;
45944;SDS011;31655;48.972;10.686;2022-11-20T09:08:56;13.90;;;7.15;;
45944;SDS011;31655;48.972;10.686;2022-11-20T09:11:22;11.75;;;6.13;;
45944;SDS011;31655;48.972;10.686;2022-11-20T09:13:48;11.10;;;5.85;;
45944;SDS011;31655;48.972;10.686;2022-11-20T09:16:13;9.43;;;5.78;;
45944;SDS011;31655;48.972;10.686;2022-11-20T09:21:22;11.25;;;5.63;;
45944;SDS011;31655;48.972;10.686;2022-11-20T09:23:49;8.30;;;5.82;;
45944;SDS011;31655;48.972;10.686;2022-11-20T09:26:15;12.32;;;6.68;;
45944;SDS011;31655;48.972;10.686;2022-11-20T09:28:40;12.43;;;6.85;;
45944;SDS011;31655;48.972;10.686;2022-11-20T09:31:07;13.93;;;6.72;;
45944;SDS011;31655;48.972;10.686;2022-11-20T09:33:34;15.15;;;7.15;;
45944;SDS011;31655;48.972;10.686;2022-11-20T09:36:00;12.77;;;6.55;;
45944;SDS011;31655;48.972;10.686;2022-11-20T09:38:27;11.38;;;6.05;;
45944;SDS011;31655;48.972;10.686;2022-11-20T09:55:08;10.38;;;6.20;;
45944;SDS011;31655;48.972;10.686;2022-11-20T09:57:40;13.43;;;7.03;;
45944;SDS011;31655;48.972;10.686;2022-11-20T10:00:13;13.80;;;6.68;;
45944;SDS011;31655;48.972;10.686;2022-11-20T10:08:17;9.07;;;6.22;;
45944;SDS011;31655;48.972;10.686;2022-11-20T10:11:12;9.52;;;5.40;;
45944;SDS011;31655;48.972;10.686;2022-11-20T10:30:28;5.22;;;4.00;;
45944;SDS011;31655;48.972;10.686;2022-11-20T10:32:57;7.03;;;4.20;;
45944;SDS011;31655;48.972;10.686;2022-11-20T10:39:07;4.35;;;2.85;;
45944;SDS011;31655;48.972;10.686;2022-11-20T10:41:42;4.65;;;3.25;;
45944;SDS011;31655;48.972;10.686;2022-11-20T10:44:14;6.88;;;3.22;;
45944;SDS011;31655;48.972;10.686;2022-11-20T10:47:19;6.53;;;3.88;;
45944;SDS011;31655;48.972;10.686;2022-11-20T10:49:46;5.82;;;3.58;;
45944;SDS011;31655;48.972;10.686;2022-11-20T10:52:37;5.65;;;3.70;;
45944;SDS011;31655;48.972;10.686;2022-11-20T11:00:39;4.22;;;3.72;;
45944;SDS011;31655;48.972;10.686;2022-11-20T11:03:38;6.53;;;4.13;;
45944;SDS011;31655;48.972;10.686;2022-11-20T11:06:07;5.60;;;3.53;;
45944;SDS011;31655;48.972;10.686;2022-11-20T11:08:53;4.47;;;3.33;;
45944;SDS011;31655;48.972;10.686;2022-11-20T11:13:47;3.72;;;2.60;;
45944;SDS011;31655;48.972;10.686;2022-11-20T11:16:20;3.15;;;1.92;;
45944;SDS011;31655;48.972;10.686;2022-11-20T11:18:51;2.75;;;1.88;;
45944;SDS011;31655;48.972;10.686;2022-11-20T11:21:23;2.33;;;1.63;;
45944;SDS011;31655;48.972;10.686;2022-11-20T11:23:57;2.20;;;1.77;;
45944;SDS011;31655;48.972;10.686;2022-11-20T11:26:28;2.90;;;1.90;;
45944;SDS011;31655;48.972;10.686;2022-11-20T11:28:55;2.28;;;1.90;;
45944;SDS011;31655;48.972;10.686;2022-11-20T11:31:25;4.57;;;2.38;;
45944;SDS011;31655;48.972;10.686;2022-11-20T11:34:03;4.30;;;1.80;;
45944;SDS011;31655;48.972;10.686;2022-11-20T11:36:30;14.50;;;8.07;;
45944;SDS011;31655;48.972;10.686;2022-11-20T11:38:59;8.70;;;5.70;;
45944;SDS011;31655;48.972;10.686;2022-11-20T11:41:33;2.08;;;1.80;;
45944;SDS011;31655;48.972;10.686;2022-11-20T11:44:47;2.15;;;1.95;;
45944;SDS011;31655;48.972;10.686;2022-11-20T11:47:24;3.65;;;2.15;;
45944;SDS011;31655;48.972;10.686;2022-11-20T11:55:36;3.78;;;2.50;;
45944;SDS011;31655;48.972;10.686;2022-11-20T11:58:11;3.50;;;2.45;;
45944;SDS011;31655;48.972;10.686;2022-11-20T12:03:42;4.15;;;2.58;;
45944;SDS011;31655;48.972;10.686;2022-11-20T12:06:16;3.42;;;2.65;;
45944;SDS011;31655;48.972;10.686;2022-11-20T12:11:21;3.08;;;2.33;;
45944;SDS011;31655;48.972;10.686;2022-11-20T12:14:09;2.78;;;2.13;;
45944;SDS011;31655;48.972;10.686;2022-11-20T12:16:48;2.60;;;2.35;;
45944;SDS011;31655;48.972;10.686;2022-11-20T12:19:15;3.65;;;2.45;;
45944;SDS011;31655;48.972;10.686;2022-11-20T12:21:54;3.03;;;2.50;;
45944;SDS011;31655;48.972;10.686;2022-11-20T12:30:14;5.45;;;3.15;;
45944;SDS011;31655;48.972;10.686;2022-11-20T12:43:36;10.80;;;6.55;;
45944;SDS011;31655;48.972;10.686;2022-11-20T12:46:46;3.15;;;2.33;;
45944;SDS011;31655;48.972;10.686;2022-11-20T12:57:24;2.70;;;1.75;;
45944;SDS011;31655;48.972;10.686;2022-11-20T13:03:05;3.38;;;2.42;;
45944;SDS011;31655;48.972;10.686;2022-11-20T13:08:23;2.55;;;2.08;;
45944;SDS011;31655;48.972;10.686;2022-11-20T13:10:54;2.78;;;2.30;;
45944;SDS011;31655;48.972;10.686;2022-11-20T13:19:19;3.33;;;2.67;;
45944;SDS011;31655;48.972;10.686;2022-11-20T13:21:46;3.78;;;3.13;;
45944;SDS011;31655;48.972;10.686;2022-11-20T13:27:33;8.38;;;5.07;;
45944;SDS011;31655;48.972;10.686;2022-11-20T13:29:34;6.43;;;4.45;;
45944;SDS011;31655;48.972;10.686;2022-11-20T13:32:22;4.60;;;3.67;;
45944;SDS011;31655;48.972;10.686;2022-11-20T13:34:57;4.38;;;3.40;;
45944;SDS011;31655;48.972;10.686;2022-11-20T13:37:33;5.45;;;3.55;;
45944;SDS011;31655;48.972;10.686;2022-11-20T13:42:35;5.07;;;3.97;;
45944;SDS011;31655;48.972;10.686;2022-11-20T13:45:20;5.82;;;4.75;;
45944;SDS011;31655;48.972;10.686;2022-11-20T13:47:49;4.63;;;3.78;;
45944;SDS011;31655;48.972;10.686;2022-11-20T13:50:16;5.43;;;4.10;;
45944;SDS011;31655;48.972;10.686;2022-11-20T13:55:54;10.60;;;4.32;;
45944;SDS011;31655;48.972;10.686;2022-11-20T14:01:23;9.77;;;4.38;;
45944;SDS011;31655;48.972;10.686;2022-11-20T14:03:50;4.85;;;2.78;;
45944;SDS011;31655;48.972;10.686;2022-11-20T14:08:54;6.63;;;4.68;;
45944;SDS011;31655;48.972;10.686;2022-11-20T14:11:21;5.20;;;3.60;;
45944;SDS011;31655;48.972;10.686;2022-11-20T14:16:22;4.78;;;4.05;;
45944;SDS011;31655;48.972;10.686;2022-11-20T14:18:48;5.90;;;4.35;;
45944;SDS011;31655;48.972;10.686;2022-11-20T14:21:28;10.30;;;5.22;;
45944;SDS011;31655;48.972;10.686;2022-11-20T14:24:09;8.57;;;4.18;;
45944;SDS011;31655;48.972;10.686;2022-11-20T14:26:37;7.72;;;4.38;;
45944;SDS011;31655;48.972;10.686;2022-11-20T14:29:12;4.25;;;3.50;;
45944;SDS011;31655;48.972;10.686;2022-11-20T14:31:41;5.38;;;3.33;;
45944;SDS011;31655;48.972;10.686;2022-11-20T14:34:27;6.00;;;3.35;;
45944;SDS011;31655;48.972;10.686;2022-11-20T14:36:58;6.95;;;2.80;;
45944;SDS011;31655;48.972;10.686;2022-11-20T14:39:33;3.15;;;2.88;;
45944;SDS011;31655;48.972;10.686;2022-11-20T14:42:01;6.97;;;3.05;;
45944;SDS011;31655;48.972;10.686;2022-11-20T14:44:29;5.35;;;2.45;;
45944;SDS011;31655;48.972;10.686;2022-11-20T14:46:57;7.70;;;3.50;;
45944;SDS011;31655;48.972;10.686;2022-11-20T14:49:25;5.05;;;2.85;;
45944;SDS011;31655;48.972;10.686;2022-11-20T14:52:01;4.35;;;2.50;;
45944;SDS011;31655;48.972;10.686;2022-11-20T14:54:43;5.97;;;2.72;;
45944;SDS011;31655;48.972;10.686;2022-11-20T14:57:18;3.70;;;2.42;;
45944;SDS011;31655;48.972;10.686;2022-11-20T15:02:32;2.95;;;2.55;;
45944;SDS011;31655;48.972;10.686;2022-11-20T15:04:59;5.25;;;3.20;;
45944;SDS011;31655;48.972;10.686;2022-11-20T15:07:32;4.68;;;3.08;;
45944;SDS011;31655;48.972;10.686;2022-11-20T15:10:06;3.63;;;2.75;;
45944;SDS011;31655;48.972;10.686;2022-11-20T15:12:35;4.43;;;2.88;;
45944;SDS011;31655;48.972;10.686;2022-11-20T15:15:12;4.25;;;3.00;;
45944;SDS011;31655;48.972;10.686;2022-11-20T15:17:42;6.07;;;3.80;;
45944;SDS011;31655;48.972;10.686;2022-11-20T15:20:12;5.03;;;3.60;;
45944;SDS011;31655;48.972;10.686;2022-11-20T15:22:39;5.47;;;3.35;;
45944;SDS011;31655;48.972;10.686;2022-11-20T15:25:15;7.38;;;3.40;;
45944;SDS011;31655;48.972;10.686;2022-11-20T15:27:42;6.07;;;3.45;;
45944;SDS011;31655;48.972;10.686;2022-11-20T15:30:18;6.22;;;3.20;;
45944;SDS011;31655;48.972;10.686;2022-11-20T15:32:45;5.15;;;3.38;;
45944;SDS011;31655;48.972;10.686;2022-11-20T15:35:11;3.88;;;3.13;;
45944;SDS011;31655;48.972;10.686;2022-11-20T15:37:38;6.57;;;3.72;;
45944;SDS011;31655;48.972;10.686;2022-11-20T15:40:04;9.15;;;3.72;;
45944;SDS011;31655;48.972;10.686;2022-11-20T15:42:31;9.68;;;4.10;;
45944;SDS011;31655;48.972;10.686;2022-11-20T15:44:57;5.72;;;3.53;;
45944;SDS011;31655;48.972;10.686;2022-11-20T15:47:24;6.45;;;3.58;;
45944;SDS011;31655;48.972;10.686;2022-11-20T15:49:59;6.85;;;3.55;;
45944;SDS011;31655;48.972;10.686;2022-11-20T15:52:24;4.70;;;4.00;;
45944;SDS011;31655;48.972;10.686;2022-11-20T15:54:50;6.32;;;3.47;;
45944;SDS011;31655;48.972;10.686;2022-11-20T15:57:16;8.77;;;3.65;;
45944;SDS011;31655;48.972;10.686;2022-11-20T15:59:42;6.80;;;3.30;;
45944;SDS011;31655;48.972;10.686;2022-11-20T16:02:10;6.18;;;3.80;;
45944;SDS011;31655;48.972;10.686;2022-11-20T16:04:37;5.25;;;3.58;;
45944;SDS011;31655;48.972;10.686;2022-11-20T16:07:03;5.50;;;4.07;;
45944;SDS011;31655;48.972;10.686;2022-11-20T16:09:28;7.00;;;4.38;;
45944;SDS011;31655;48.972;10.686;2022-11-20T16:11:54;6.15;;;3.78;;
45944;SDS011;31655;48.972;10.686;2022-11-20T16:14:20;5.80;;;3.95;;
45944;SDS011;31655;48.972;10.686;2022-11-20T16:17:04;4.38;;;3.45;;
45944;SDS011;31655;48.972;10.686;2022-11-20T16:19:30;5.75;;;4.28;;
45944;SDS011;31655;48.972;10.686;2022-11-20T16:21:57;5.65;;;3.35;;
45944;SDS011;31655;48.972;10.686;2022-11-20T16:24:22;5.85;;;3.95;;
45944;SDS011;31655;48.972;10.686;2022-11-20T16:26:48;13.15;;;5.40;;
45944;SDS011;31655;48.972;10.686;2022-11-20T16:29:14;7.45;;;4.45;;
45944;SDS011;31655;48.972;10.686;2022-11-20T16:31:39;7.65;;;3.67;;
45944;SDS011;31655;48.972;10.686;2022-11-20T16:34:06;9.63;;;4.20;;
45944;SDS011;31655;48.972;10.686;2022-11-20T16:36:32;7.00;;;4.43;;
45944;SDS011;31655;48.972;10.686;2022-11-20T16:39:02;9.88;;;4.40;;
45944;SDS011;31655;48.972;10.686;2022-11-20T16:41:29;7.32;;;4.28;;